sensor_id;sensor_type;location;lat;lon;timestamp;pressure;altitude;pressure_sealevel;temperature;humidity
58686;BME280;44465;53.206;-6.106;2022-11-20T00:01:29;100357.50;;;18.47;53.71
58686;BME280;44465;53.206;-6.106;2022-11-20T00:03:57;100356.72;;;18.45;53.75
58686;BME280;44465;53.206;-6.106;2022-11-20T00:06:27;100335.38;;;18.45;53.65
58686;BME280;44465;53.206;-6.106;2022-11-20T00:08:55;100333.50;;;18.47;53.55
58686;BME280;44465;53.206;-6.106;2022-11-20T00:11:26;100340.63;;;18.47;53.61
58686;BME280;44465;53.206;-6.106;2022-11-20T00:14:11;100323.00;;;18.44;53.51
58686;BME280;44465;53.206;-6.106;2022-11-20T00:16:37;100339.78;;;18.46;53.75
58686;BME280;44465;53.206;-6.106;2022-11-20T00:19:04;100318.47;;;18.28;53.60
58686;BME280;44465;53.206;-6.106;2022-11-20T00:21:31;100348.81;;;18.43;53.87
58686;BME280;44465;53.206;-6.106;2022-11-20T00:23:59;100353.97;;;18.47;53.69
58686;BME280;44465;53.206;-6.106;2022-11-20T00:26:28;100356.56;;;18.48;53.70
58686;BME280;44465;53.206;-6.106;2022-11-20T00:28:58;100357.50;;;18.47;53.62
58686;BME280;44465;53.206;-6.106;2022-11-20T00:31:25;100355.78;;;18.46;53.79
58686;BME280;44465;53.206;-6.106;2022-11-20T00:33:58;100357.50;;;18.47;53.98
58686;BME280;44465;53.206;-6.106;2022-11-20T00:36:26;100329.28;;;18.25;53.76
58686;BME280;44465;53.206;-6.106;2022-11-20T00:38:55;100341.53;;;18.29;53.66
58686;BME280;44465;53.206;-6.106;2022-11-20T00:41:41;100363.38;;;18.36;53.50
58686;BME280;44465;53.206;-6.106;2022-11-20T00:44:07;100358.13;;;18.35;53.85
58686;BME280;44465;53.206;-6.106;2022-11-20T00:46:32;100358.44;;;18.46;53.79
58686;BME280;44465;53.206;-6.106;2022-11-20T00:48:59;100357.50;;;18.47;53.60
58686;BME280;44465;53.206;-6.106;2022-11-20T00:51:26;100339.16;;;18.41;53.34
58686;BME280;44465;53.206;-6.106;2022-11-20T00:53:52;100343.28;;;18.47;53.49
58686;BME280;44465;53.206;-6.106;2022-11-20T00:56:20;100306.22;;;18.24;53.65
58686;BME280;44465;53.206;-6.106;2022-11-20T00:58:47;100339.88;;;18.44;53.35
58686;BME280;44465;53.206;-6.106;2022-11-20T01:01:17;100279.03;;;18.18;53.49
58686;BME280;44465;53.206;-6.106;2022-11-20T01:03:59;100323.31;;;18.38;53.65
58686;BME280;44465;53.206;-6.106;2022-11-20T01:09:10;100328.31;;;18.44;53.64
58686;BME280;44465;53.206;-6.106;2022-11-20T01:11:43;100317.28;;;18.34;53.32
58686;BME280;44465;53.206;-6.106;2022-11-20T01:14:18;100333.66;;;18.44;53.38
58686;BME280;44465;53.206;-6.106;2022-11-20T01:16:47;100336.41;;;18.42;53.61
58686;BME280;44465;53.206;-6.106;2022-11-20T01:19:18;100326.22;;;18.33;53.52
58686;BME280;44465;53.206;-6.106;2022-11-20T01:21:53;100335.38;;;18.45;53.72
58686;BME280;44465;53.206;-6.106;2022-11-20T01:24:20;100361.13;;;18.46;53.68
58686;BME280;44465;53.206;-6.106;2022-11-20T01:26:52;100339.72;;;18.30;53.35
58686;BME280;44465;53.206;-6.106;2022-11-20T01:29:24;100359.63;;;18.40;53.65
58686;BME280;44465;53.206;-6.106;2022-11-20T01:32:01;100378.06;;;18.45;53.55
58686;BME280;44465;53.206;-6.106;2022-11-20T01:34:26;100372.94;;;18.40;53.55
58686;BME280;44465;53.206;-6.106;2022-11-20T01:36:52;100366.81;;;18.38;53.53
58686;BME280;44465;53.206;-6.106;2022-11-20T01:39:38;100383.38;;;18.45;53.30
58686;BME280;44465;53.206;-6.106;2022-11-20T01:42:09;100392.25;;;18.45;53.62
58686;BME280;44465;53.206;-6.106;2022-11-20T01:44:59;100369.72;;;18.34;53.47
58686;BME280;44465;53.206;-6.106;2022-11-20T01:47:35;100373.34;;;18.33;53.39
58686;BME280;44465;53.206;-6.106;2022-11-20T01:50:23;100380.47;;;18.32;53.59
58686;BME280;44465;53.206;-6.106;2022-11-20T01:53:02;100383.53;;;18.42;53.37
58686;BME280;44465;53.206;-6.106;2022-11-20T01:55:32;100398.59;;;18.43;53.46
58686;BME280;44465;53.206;-6.106;2022-11-20T01:58:01;100409.09;;;18.46;53.63
58686;BME280;44465;53.206;-6.106;2022-11-20T02:00:29;100379.53;;;18.33;53.46
58686;BME280;44465;53.206;-6.106;2022-11-20T02:03:02;100404.09;;;18.40;53.65
58686;BME280;44465;53.206;-6.106;2022-11-20T02:08:21;100410.13;;;18.43;53.58
58686;BME280;44465;53.206;-6.106;2022-11-20T02:10:52;100405.97;;;18.38;53.47
58686;BME280;44465;53.206;-6.106;2022-11-20T02:13:18;100399.84;;;18.36;53.38
58686;BME280;44465;53.206;-6.106;2022-11-20T02:18:37;100392.22;;;18.28;53.28
58686;BME280;44465;53.206;-6.106;2022-11-20T02:21:09;100388.94;;;18.23;53.44
58686;BME280;44465;53.206;-6.106;2022-11-20T02:26:31;100376.31;;;18.09;53.46
58686;BME280;44465;53.206;-6.106;2022-11-20T02:29:03;100439.47;;;18.43;53.35
58686;BME280;44465;53.206;-6.106;2022-11-20T02:31:36;100434.97;;;18.44;53.52
58686;BME280;44465;53.206;-6.106;2022-11-20T02:34:04;100414.13;;;18.35;53.52
58686;BME280;44465;53.206;-6.106;2022-11-20T02:36:33;100429.03;;;18.39;53.46
58686;BME280;44465;53.206;-6.106;2022-11-20T02:39:01;100429.81;;;18.41;53.39
58686;BME280;44465;53.206;-6.106;2022-11-20T02:41:53;100448.41;;;18.42;53.70
58686;BME280;44465;53.206;-6.106;2022-11-20T02:44:25;100443.78;;;18.46;53.46
58686;BME280;44465;53.206;-6.106;2022-11-20T02:46:51;100431.84;;;18.36;54.02
58686;BME280;44465;53.206;-6.106;2022-11-20T02:49:18;100422.75;;;18.40;53.54
58686;BME280;44465;53.206;-6.106;2022-11-20T02:51:44;100430.53;;;18.44;53.51
58686;BME280;44465;53.206;-6.106;2022-11-20T02:54:19;100431.38;;;18.45;53.47
58686;BME280;44465;53.206;-6.106;2022-11-20T02:56:44;100430.53;;;18.44;53.48
58686;BME280;44465;53.206;-6.106;2022-11-20T02:59:10;100406.34;;;18.30;53.34
58686;BME280;44465;53.206;-6.106;2022-11-20T03:01:41;100435.91;;;18.43;53.67
58686;BME280;44465;53.206;-6.106;2022-11-20T03:04:07;100434.19;;;18.42;53.67
58686;BME280;44465;53.206;-6.106;2022-11-20T03:06:33;100437.31;;;18.33;53.27
58686;BME280;44465;53.206;-6.106;2022-11-20T03:09:02;100456.31;;;18.44;53.44
58686;BME280;44465;53.206;-6.106;2022-11-20T03:11:28;100431.97;;;18.33;53.41
58686;BME280;44465;53.206;-6.106;2022-11-20T03:13:55;100462.34;;;18.48;53.41
58686;BME280;44465;53.206;-6.106;2022-11-20T03:16:23;100464.16;;;18.47;53.21
58686;BME280;44465;53.206;-6.106;2022-11-20T03:18:51;100463.47;;;18.43;53.33
58686;BME280;44465;53.206;-6.106;2022-11-20T03:21:17;100420.03;;;18.22;53.60
58686;BME280;44465;53.206;-6.106;2022-11-20T03:23:43;100456.63;;;18.38;53.20
58686;BME280;44465;53.206;-6.106;2022-11-20T03:26:42;100476.78;;;18.43;53.54
58686;BME280;44465;53.206;-6.106;2022-11-20T03:29:09;100466.13;;;18.43;53.37
58686;BME280;44465;53.206;-6.106;2022-11-20T03:31:44;100455.34;;;18.27;53.51
58686;BME280;44465;53.206;-6.106;2022-11-20T03:34:13;100465.41;;;18.40;53.56
58686;BME280;44465;53.206;-6.106;2022-11-20T03:36:40;100439.34;;;18.27;53.29
58686;BME280;44465;53.206;-6.106;2022-11-20T03:39:06;100469.72;;;18.42;53.23
58686;BME280;44465;53.206;-6.106;2022-11-20T03:41:47;100482.97;;;18.44;53.31
58686;BME280;44465;53.206;-6.106;2022-11-20T03:44:12;100445.72;;;18.25;53.76
58686;BME280;44465;53.206;-6.106;2022-11-20T03:46:38;100446.25;;;18.32;53.57
58686;BME280;44465;53.206;-6.106;2022-11-20T03:49:04;100458.34;;;18.39;53.48
58686;BME280;44465;53.206;-6.106;2022-11-20T03:51:50;100421.94;;;18.20;53.35
58686;BME280;44465;53.206;-6.106;2022-11-20T03:54:15;100408.28;;;18.09;53.48
58686;BME280;44465;53.206;-6.106;2022-11-20T03:56:41;100410.72;;;18.13;53.36
58686;BME280;44465;53.206;-6.106;2022-11-20T03:59:10;100414.38;;;18.11;53.28
58686;BME280;44465;53.206;-6.106;2022-11-20T04:01:36;100480.16;;;18.47;53.37
58686;BME280;44465;53.206;-6.106;2022-11-20T04:04:06;100481.88;;;18.48;53.48
58686;BME280;44465;53.206;-6.106;2022-11-20T04:06:55;100474.97;;;18.44;53.64
58686;BME280;44465;53.206;-6.106;2022-11-20T04:09:21;100406.84;;;18.02;53.62
58686;BME280;44465;53.206;-6.106;2022-11-20T04:11:46;100438.47;;;18.27;53.36
58686;BME280;44465;53.206;-6.106;2022-11-20T04:14:18;100449.88;;;18.31;53.70
58686;BME280;44465;53.206;-6.106;2022-11-20T04:16:45;100470.44;;;18.46;53.22
58686;BME280;44465;53.206;-6.106;2022-11-20T04:19:24;100473.09;;;18.46;53.26
58686;BME280;44465;53.206;-6.106;2022-11-20T04:21:49;100432.44;;;18.23;53.40
58686;BME280;44465;53.206;-6.106;2022-11-20T04:24:18;100469.50;;;18.47;53.19
58686;BME280;44465;53.206;-6.106;2022-11-20T04:26:43;100468.56;;;18.48;53.31
58686;BME280;44465;53.206;-6.106;2022-11-20T04:29:11;100457.00;;;18.48;53.22
58686;BME280;44465;53.206;-6.106;2022-11-20T04:31:36;100443.69;;;18.48;53.41
58686;BME280;44465;53.206;-6.106;2022-11-20T04:34:04;100460.56;;;18.48;53.20
58686;BME280;44465;53.206;-6.106;2022-11-20T04:36:31;100450.84;;;18.47;53.40
58686;BME280;44465;53.206;-6.106;2022-11-20T04:39:01;100437.88;;;18.39;53.28
58686;BME280;44465;53.206;-6.106;2022-11-20T04:41:30;100423.28;;;18.29;53.36
58686;BME280;44465;53.206;-6.106;2022-11-20T04:44:03;100441.56;;;18.37;53.34
58686;BME280;44465;53.206;-6.106;2022-11-20T04:46:32;100449.19;;;18.44;53.32
58686;BME280;44465;53.206;-6.106;2022-11-20T04:48:59;100422.94;;;18.18;53.30
58686;BME280;44465;53.206;-6.106;2022-11-20T04:51:24;100460.78;;;18.43;53.26
58686;BME280;44465;53.206;-6.106;2022-11-20T04:53:51;100427.28;;;18.20;53.10
58686;BME280;44465;53.206;-6.106;2022-11-20T04:56:17;100437.63;;;18.26;53.20
58686;BME280;44465;53.206;-6.106;2022-11-20T04:58:43;100482.97;;;18.44;53.26
58686;BME280;44465;53.206;-6.106;2022-11-20T05:01:12;100474.03;;;18.45;53.38
58686;BME280;44465;53.206;-6.106;2022-11-20T05:03:44;100450.03;;;18.27;53.37
58686;BME280;44465;53.206;-6.106;2022-11-20T05:06:16;100360.06;;;17.77;53.20
58686;BME280;44465;53.206;-6.106;2022-11-20T05:08:44;100482.97;;;18.44;53.50
58686;BME280;44465;53.206;-6.106;2022-11-20T05:11:15;100387.97;;;17.87;52.99
58686;BME280;44465;53.206;-6.106;2022-11-20T05:14:01;100484.84;;;18.42;53.22
58686;BME280;44465;53.206;-6.106;2022-11-20T05:16:27;100478.66;;;18.41;53.33
58686;BME280;44465;53.206;-6.106;2022-11-20T05:18:53;100436.44;;;18.14;53.36
58686;BME280;44465;53.206;-6.106;2022-11-20T05:21:21;100476.09;;;18.40;53.02
58686;BME280;44465;53.206;-6.106;2022-11-20T05:23:47;100463.03;;;18.34;53.26
58686;BME280;44465;53.206;-6.106;2022-11-20T05:26:22;100476.09;;;18.40;53.00
58686;BME280;44465;53.206;-6.106;2022-11-20T05:28:48;100451.88;;;18.25;53.17
58686;BME280;44465;53.206;-6.106;2022-11-20T05:31:22;100409.44;;;18.03;53.26
58686;BME280;44465;53.206;-6.106;2022-11-20T05:33:50;100460.31;;;18.35;52.96
58686;BME280;44465;53.206;-6.106;2022-11-20T05:36:16;100389.41;;;17.94;53.30
58686;BME280;44465;53.206;-6.106;2022-11-20T05:38:45;100395.47;;;17.98;53.10
58686;BME280;44465;53.206;-6.106;2022-11-20T05:41:16;100346.25;;;17.68;53.00
58686;BME280;44465;53.206;-6.106;2022-11-20T05:43:45;100452.13;;;18.38;53.15
58686;BME280;44465;53.206;-6.106;2022-11-20T05:46:13;100342.50;;;17.73;52.95
58686;BME280;44465;53.206;-6.106;2022-11-20T05:48:41;100418.31;;;18.21;53.24
58686;BME280;44465;53.206;-6.106;2022-11-20T05:51:11;100363.78;;;17.92;53.23
58686;BME280;44465;53.206;-6.106;2022-11-20T05:53:40;100362.13;;;17.89;53.14
58686;BME280;44465;53.206;-6.106;2022-11-20T05:56:28;100428.38;;;18.34;53.23
58686;BME280;44465;53.206;-6.106;2022-11-20T05:58:56;100428.56;;;18.31;53.12
58686;BME280;44465;53.206;-6.106;2022-11-20T06:01:23;100431.97;;;18.33;53.24
58686;BME280;44465;53.206;-6.106;2022-11-20T06:03:52;100364.81;;;17.89;53.14
58686;BME280;44465;53.206;-6.106;2022-11-20T06:06:18;100438.56;;;18.25;53.46
58686;BME280;44465;53.206;-6.106;2022-11-20T06:08:46;100419.47;;;18.16;53.28
58686;BME280;44465;53.206;-6.106;2022-11-20T06:11:24;100403.66;;;18.12;53.08
58686;BME280;44465;53.206;-6.106;2022-11-20T06:13:50;100429.41;;;18.31;53.17
58686;BME280;44465;53.206;-6.106;2022-11-20T06:16:18;100408.53;;;18.22;53.16
58686;BME280;44465;53.206;-6.106;2022-11-20T06:18:45;100345.19;;;17.90;53.08
58686;BME280;44465;53.206;-6.106;2022-11-20T06:21:15;100424.91;;;18.32;53.23
58686;BME280;44465;53.206;-6.106;2022-11-20T06:23:43;100417.09;;;18.28;53.20
58686;BME280;44465;53.206;-6.106;2022-11-20T06:26:22;100417.09;;;18.28;52.98
58686;BME280;44465;53.206;-6.106;2022-11-20T06:28:48;100377.72;;;18.16;53.06
58686;BME280;44465;53.206;-6.106;2022-11-20T06:31:22;100401.09;;;18.28;53.20
58686;BME280;44465;53.206;-6.106;2022-11-20T06:33:48;100321.44;;;17.86;53.18
58686;BME280;44465;53.206;-6.106;2022-11-20T06:36:16;100385.09;;;18.28;53.29
58686;BME280;44465;53.206;-6.106;2022-11-20T06:38:43;100378.06;;;18.27;53.04
58686;BME280;44465;53.206;-6.106;2022-11-20T06:41:15;100357.97;;;18.20;53.12
58686;BME280;44465;53.206;-6.106;2022-11-20T06:43:44;100337.56;;;18.02;53.30
58686;BME280;44465;53.206;-6.106;2022-11-20T06:46:12;100388.63;;;18.29;52.88
58686;BME280;44465;53.206;-6.106;2022-11-20T06:48:43;100391.38;;;18.27;53.00
58686;BME280;44465;53.206;-6.106;2022-11-20T06:51:09;100360.31;;;18.09;53.11
58686;BME280;44465;53.206;-6.106;2022-11-20T06:53:36;100384.16;;;18.29;52.91
58686;BME280;44465;53.206;-6.106;2022-11-20T06:56:07;100381.56;;;18.28;53.01
58686;BME280;44465;53.206;-6.106;2022-11-20T06:58:34;100386.91;;;18.28;53.06
58686;BME280;44465;53.206;-6.106;2022-11-20T07:01:09;100344.63;;;18.03;53.39
58686;BME280;44465;53.206;-6.106;2022-11-20T07:03:37;100385.25;;;18.25;53.01
58686;BME280;44465;53.206;-6.106;2022-11-20T07:06:04;100391.53;;;18.24;52.95
58686;BME280;44465;53.206;-6.106;2022-11-20T07:08:31;100372.38;;;18.16;53.28
58686;BME280;44465;53.206;-6.106;2022-11-20T07:10:58;100377.25;;;18.25;53.25
58686;BME280;44465;53.206;-6.106;2022-11-20T07:13:26;100379.13;;;18.23;53.26
58686;BME280;44465;53.206;-6.106;2022-11-20T07:15:53;100380.84;;;18.24;53.08
58686;BME280;44465;53.206;-6.106;2022-11-20T07:18:18;100357.34;;;18.15;52.94
58686;BME280;44465;53.206;-6.106;2022-11-20T07:20:44;100363.59;;;18.14;52.90
58686;BME280;44465;53.206;-6.106;2022-11-20T07:23:09;100359.16;;;18.14;52.93
58686;BME280;44465;53.206;-6.106;2022-11-20T07:25:36;100295.97;;;17.80;53.27
58686;BME280;44465;53.206;-6.106;2022-11-20T07:28:01;100352.72;;;18.19;52.82
58686;BME280;44465;53.206;-6.106;2022-11-20T07:30:27;100340.72;;;18.10;53.05
58686;BME280;44465;53.206;-6.106;2022-11-20T07:32:54;100363.13;;;18.23;52.98
58686;BME280;44465;53.206;-6.106;2022-11-20T07:35:26;100367.28;;;18.11;53.38
58686;BME280;44465;53.206;-6.106;2022-11-20T07:37:52;100365.34;;;18.15;53.29
58686;BME280;44465;53.206;-6.106;2022-11-20T07:40:18;100357.44;;;18.13;53.11
58686;BME280;44465;53.206;-6.106;2022-11-20T07:42:52;100352.38;;;18.07;53.02
58686;BME280;44465;53.206;-6.106;2022-11-20T07:45:22;100356.31;;;18.00;53.25
58686;BME280;44465;53.206;-6.106;2022-11-20T07:47:50;100360.56;;;18.04;52.93
58686;BME280;44465;53.206;-6.106;2022-11-20T07:50:18;100371.97;;;18.06;53.27
58686;BME280;44465;53.206;-6.106;2022-11-20T07:52:48;100370.03;;;18.10;53.29
58686;BME280;44465;53.206;-6.106;2022-11-20T07:55:14;100382.13;;;18.17;52.95
58686;BME280;44465;53.206;-6.106;2022-11-20T07:57:56;100370.66;;;18.15;52.89
58686;BME280;44465;53.206;-6.106;2022-11-20T08:00:22;100371.50;;;18.16;53.22
58686;BME280;44465;53.206;-6.106;2022-11-20T08:02:48;100363.50;;;18.16;52.87
58686;BME280;44465;53.206;-6.106;2022-11-20T08:05:15;100354.59;;;18.17;53.07
58686;BME280;44465;53.206;-6.106;2022-11-20T08:07:42;100356.50;;;18.14;53.03
58686;BME280;44465;53.206;-6.106;2022-11-20T08:10:12;100287.50;;;17.72;53.11
58686;BME280;44465;53.206;-6.106;2022-11-20T08:12:46;100285.50;;;17.77;53.17
58686;BME280;44465;53.206;-6.106;2022-11-20T08:15:33;100352.94;;;18.14;52.97
58686;BME280;44465;53.206;-6.106;2022-11-20T08:18:12;100354.81;;;18.12;52.73
58686;BME280;44465;53.206;-6.106;2022-11-20T08:20:47;100370.03;;;18.10;53.07
58686;BME280;44465;53.206;-6.106;2022-11-20T08:23:12;100337.06;;;17.93;53.20
58686;BME280;44465;53.206;-6.106;2022-11-20T08:25:38;100358.41;;;18.11;53.04
58686;BME280;44465;53.206;-6.106;2022-11-20T08:28:07;100361.88;;;18.13;53.44
58686;BME280;44465;53.206;-6.106;2022-11-20T08:30:38;100318.16;;;17.80;53.05
58686;BME280;44465;53.206;-6.106;2022-11-20T08:33:08;100355.13;;;18.06;53.08
58686;BME280;44465;53.206;-6.106;2022-11-20T08:35:37;100365.47;;;18.12;52.94
58686;BME280;44465;53.206;-6.106;2022-11-20T08:38:05;100370.81;;;18.12;52.78
58686;BME280;44465;53.206;-6.106;2022-11-20T08:40:31;100364.91;;;18.05;52.94
58686;BME280;44465;53.206;-6.106;2022-11-20T08:42:57;100332.59;;;17.94;52.82
58686;BME280;44465;53.206;-6.106;2022-11-20T08:45:24;100373.69;;;18.07;53.15
58686;BME280;44465;53.206;-6.106;2022-11-20T08:47:50;100354.66;;;17.97;53.09
58686;BME280;44465;53.206;-6.106;2022-11-20T08:50:16;100385.25;;;18.08;53.14
58686;BME280;44465;53.206;-6.106;2022-11-20T08:52:43;100366.88;;;18.02;53.08
58686;BME280;44465;53.206;-6.106;2022-11-20T08:55:17;100308.41;;;17.62;53.13
58686;BME280;44465;53.206;-6.106;2022-11-20T08:57:43;100365.34;;;17.96;53.15
58686;BME280;44465;53.206;-6.106;2022-11-20T09:00:10;100376.38;;;18.07;53.09
58686;BME280;44465;53.206;-6.106;2022-11-20T09:02:36;100323.56;;;17.79;53.29
58686;BME280;44465;53.206;-6.106;2022-11-20T09:05:01;100373.66;;;18.09;53.21
58686;BME280;44465;53.206;-6.106;2022-11-20T09:07:28;100370.09;;;18.08;52.92
58686;BME280;44465;53.206;-6.106;2022-11-20T09:09:55;100345.72;;;17.98;53.09
58686;BME280;44465;53.206;-6.106;2022-11-20T09:12:20;100333.78;;;17.88;52.93
58686;BME280;44465;53.206;-6.106;2022-11-20T09:14:46;100339.84;;;17.90;53.19
58686;BME280;44465;53.206;-6.106;2022-11-20T09:17:16;100347.22;;;18.04;53.10
58686;BME280;44465;53.206;-6.106;2022-11-20T09:19:42;100336.00;;;17.97;52.85
58686;BME280;44465;53.206;-6.106;2022-11-20T09:22:12;100347.59;;;17.96;53.08
58686;BME280;44465;53.206;-6.106;2022-11-20T09:24:39;100332.75;;;17.91;53.30
58686;BME280;44465;53.206;-6.106;2022-11-20T09:27:06;100320.75;;;17.82;53.23
58686;BME280;44465;53.206;-6.106;2022-11-20T09:29:31;100342.47;;;17.92;53.33
58686;BME280;44465;53.206;-6.106;2022-11-20T09:32:00;100354.78;;;17.94;53.35
58686;BME280;44465;53.206;-6.106;2022-11-20T09:34:26;100320.13;;;17.77;53.37
58686;BME280;44465;53.206;-6.106;2022-11-20T09:37:10;100362.34;;;18.04;53.30
58686;BME280;44465;53.206;-6.106;2022-11-20T09:39:35;100366.72;;;18.05;53.50
58686;BME280;44465;53.206;-6.106;2022-11-20T09:48:10;100373.00;;;18.04;53.32
58686;BME280;44465;53.206;-6.106;2022-11-20T09:54:29;100395.75;;;17.92;53.23
58686;BME280;44465;53.206;-6.106;2022-11-20T09:56:30;100392.56;;;18.03;53.25
58686;BME280;44465;53.206;-6.106;2022-11-20T09:58:59;100325.38;;;17.59;53.04
58686;BME280;44465;53.206;-6.106;2022-11-20T10:01:33;100390.25;;;17.95;53.59
58686;BME280;44465;53.206;-6.106;2022-11-20T10:04:22;100387.66;;;17.93;53.31
58686;BME280;44465;53.206;-6.106;2022-11-20T10:07:07;100396.19;;;18.02;53.42
58686;BME280;44465;53.206;-6.106;2022-11-20T10:09:40;100417.34;;;18.05;53.45
58686;BME280;44465;53.206;-6.106;2022-11-20T10:15:28;100414.22;;;17.95;53.21
58686;BME280;44465;53.206;-6.106;2022-11-20T10:20:58;100426.28;;;18.04;53.28
58686;BME280;44465;53.206;-6.106;2022-11-20T10:23:45;100420.09;;;18.03;53.26
58686;BME280;44465;53.206;-6.106;2022-11-20T10:29:24;100382.78;;;17.84;53.22
58686;BME280;44465;53.206;-6.106;2022-11-20T10:32:02;100392.06;;;17.94;53.56
58686;BME280;44465;53.206;-6.106;2022-11-20T10:35:22;100409.50;;;18.02;53.33
58686;BME280;44465;53.206;-6.106;2022-11-20T10:38:00;100395.56;;;17.96;53.48
58686;BME280;44465;53.206;-6.106;2022-11-20T10:40:53;100374.00;;;17.82;53.64
58686;BME280;44465;53.206;-6.106;2022-11-20T10:43:41;100355.72;;;17.74;53.69
58686;BME280;44465;53.206;-6.106;2022-11-20T10:46:43;100397.13;;;18.01;53.48
58686;BME280;44465;53.206;-6.106;2022-11-20T10:49:19;100389.91;;;18.03;53.59
58686;BME280;44465;53.206;-6.106;2022-11-20T11:00:43;100407.78;;;18.01;53.52
58686;BME280;44465;53.206;-6.106;2022-11-20T11:03:45;100384.22;;;17.91;53.35
58686;BME280;44465;53.206;-6.106;2022-11-20T11:06:43;100414.06;;;18.00;53.43
58686;BME280;44465;53.206;-6.106;2022-11-20T11:09:32;100445.06;;;18.01;53.60
58686;BME280;44465;53.206;-6.106;2022-11-20T11:12:07;100439.75;;;18.01;53.46
58686;BME280;44465;53.206;-6.106;2022-11-20T11:14:43;100437.06;;;18.01;53.34
58686;BME280;44465;53.206;-6.106;2022-11-20T11:17:21;100427.00;;;17.88;53.65
58686;BME280;44465;53.206;-6.106;2022-11-20T11:22:47;100454.78;;;18.02;53.17
58686;BME280;44465;53.206;-6.106;2022-11-20T11:25:43;100431.22;;;17.92;53.44
58686;BME280;44465;53.206;-6.106;2022-11-20T11:28:22;100455.03;;;17.97;53.75
58686;BME280;44465;53.206;-6.106;2022-11-20T11:31:33;100469.94;;;18.01;53.58
58686;BME280;44465;53.206;-6.106;2022-11-20T11:34:15;100466.34;;;18.02;53.32
58686;BME280;44465;53.206;-6.106;2022-11-20T11:37:01;100412.75;;;17.70;53.42
58686;BME280;44465;53.206;-6.106;2022-11-20T11:39:30;100402.09;;;17.70;53.43
58686;BME280;44465;53.206;-6.106;2022-11-20T11:42:02;100423.53;;;17.86;53.35
58686;BME280;44465;53.206;-6.106;2022-11-20T11:44:31;100460.06;;;18.03;53.80
58686;BME280;44465;53.206;-6.106;2022-11-20T11:47:32;100443.84;;;17.89;53.23
58686;BME280;44465;53.206;-6.106;2022-11-20T11:55:42;100451.19;;;18.03;53.76
58686;BME280;44465;53.206;-6.106;2022-11-20T12:03:42;100407.13;;;17.95;53.63
58686;BME280;44465;53.206;-6.106;2022-11-20T12:06:16;100428.16;;;18.02;53.69
58686;BME280;44465;53.206;-6.106;2022-11-20T12:09:10;100415.19;;;17.94;53.43
58686;BME280;44465;53.206;-6.106;2022-11-20T12:12:12;100421.09;;;18.01;53.33
58686;BME280;44465;53.206;-6.106;2022-11-20T12:14:48;100415.75;;;18.01;53.40
58686;BME280;44465;53.206;-6.106;2022-11-20T12:17:23;100408.56;;;18.03;53.68
58686;BME280;44465;53.206;-6.106;2022-11-20T12:19:49;100391.44;;;17.89;53.38
58686;BME280;44465;53.206;-6.106;2022-11-20T12:25:30;100393.00;;;17.93;53.44
58686;BME280;44465;53.206;-6.106;2022-11-20T12:34:14;100396.34;;;17.98;53.77
58686;BME280;44465;53.206;-6.106;2022-11-20T12:39:49;100406.00;;;18.01;53.69
58686;BME280;44465;53.206;-6.106;2022-11-20T12:42:22;100310.16;;;17.44;53.67
58686;BME280;44465;53.206;-6.106;2022-11-20T12:48:35;100419.31;;;18.01;53.35
58686;BME280;44465;53.206;-6.106;2022-11-20T12:57:01;100442.50;;;17.99;53.61
58686;BME280;44465;53.206;-6.106;2022-11-20T13:08:34;100407.56;;;17.86;53.99
58686;BME280;44465;53.206;-6.106;2022-11-20T13:11:33;100451.38;;;18.00;53.81
58686;BME280;44465;53.206;-6.106;2022-11-20T13:19:24;100400.88;;;17.77;53.62
58686;BME280;44465;53.206;-6.106;2022-11-20T13:22:12;100360.16;;;17.56;53.43
58686;BME280;44465;53.206;-6.106;2022-11-20T13:24:38;100381.66;;;17.71;53.60
58686;BME280;44465;53.206;-6.106;2022-11-20T13:27:22;100408.59;;;17.83;53.39
58686;BME280;44465;53.206;-6.106;2022-11-20T13:30:13;100420.31;;;17.79;53.62
58686;BME280;44465;53.206;-6.106;2022-11-20T13:32:54;100461.00;;;18.02;53.69
58686;BME280;44465;53.206;-6.106;2022-11-20T13:35:53;100453.34;;;17.94;53.72
58686;BME280;44465;53.206;-6.106;2022-11-20T13:38:39;100367.34;;;17.54;53.79
58686;BME280;44465;53.206;-6.106;2022-11-20T13:41:22;100388.28;;;17.62;53.85
58686;BME280;44465;53.206;-6.106;2022-11-20T13:44:04;100441.09;;;17.90;53.76
58686;BME280;44465;53.206;-6.106;2022-11-20T13:46:46;100443.13;;;17.85;53.61
58686;BME280;44465;53.206;-6.106;2022-11-20T13:49:27;100445.66;;;17.88;53.50
58686;BME280;44465;53.206;-6.106;2022-11-20T13:52:21;100481.38;;;18.03;53.69
58686;BME280;44465;53.206;-6.106;2022-11-20T14:00:58;100471.06;;;17.95;53.25
58686;BME280;44465;53.206;-6.106;2022-11-20T14:03:38;100488.38;;;18.06;53.30
58686;BME280;44465;53.206;-6.106;2022-11-20T14:06:11;100418.09;;;17.70;53.67
58686;BME280;44465;53.206;-6.106;2022-11-20T14:08:48;100482.03;;;18.08;53.39
58686;BME280;44465;53.206;-6.106;2022-11-20T14:11:46;100465.63;;;17.98;53.51
58686;BME280;44465;53.206;-6.106;2022-11-20T14:14:20;100448.31;;;17.88;53.67
58686;BME280;44465;53.206;-6.106;2022-11-20T14:20:04;100482.03;;;18.08;53.50
58686;BME280;44465;53.206;-6.106;2022-11-20T14:22:32;100408.72;;;17.61;52.75
58686;BME280;44465;53.206;-6.106;2022-11-20T14:25:25;100474.72;;;18.12;52.88
58686;BME280;44465;53.206;-6.106;2022-11-20T14:27:57;100485.34;;;18.13;53.17
58686;BME280;44465;53.206;-6.106;2022-11-20T14:30:52;100462.41;;;17.90;53.04
58686;BME280;44465;53.206;-6.106;2022-11-20T14:33:26;100485.84;;;18.03;53.09
58686;BME280;44465;53.206;-6.106;2022-11-20T14:35:58;100472.13;;;17.91;53.39
58686;BME280;44465;53.206;-6.106;2022-11-20T14:38:35;100440.22;;;17.71;53.45
58686;BME280;44465;53.206;-6.106;2022-11-20T14:41:20;100489.00;;;18.11;53.38
58686;BME280;44465;53.206;-6.106;2022-11-20T14:44:04;100447.97;;;17.77;53.69
58686;BME280;44465;53.206;-6.106;2022-11-20T14:46:35;100399.50;;;17.49;53.63